sensor_id;sensor_type;location;lat;lon;timestamp;pressure;altitude;pressure_sealevel;temperature;humidity
10518;BME280;5307;42.548;22.968;2023-10-13T00:02:14;94395.25;;;9.77;96.37
10518;BME280;5307;42.548;22.968;2023-10-13T00:04:45;94397.13;;;9.80;96.38
10518;BME280;5307;42.548;22.968;2023-10-13T00:07:12;94390.13;;;9.79;96.57
10518;BME280;5307;42.548;22.968;2023-10-13T00:09:39;94386.72;;;9.75;96.62
10518;BME280;5307;42.548;22.968;2023-10-13T00:12:07;94382.03;;;9.75;95.89
10518;BME280;5307;42.548;22.968;2023-10-13T00:14:38;94374.44;;;9.83;95.41
10518;BME280;5307;42.548;22.968;2023-10-13T00:17:07;94378.97;;;9.73;95.70
10518;BME280;5307;42.548;22.968;2023-10-13T00:19:41;94377.13;;;9.54;96.56
10518;BME280;5307;42.548;22.968;2023-10-13T00:22:14;94375.16;;;9.55;96.19
10518;BME280;5307;42.548;22.968;2023-10-13T00:24:43;94377.47;;;9.40;96.59
10518;BME280;5307;42.548;22.968;2023-10-13T00:27:11;94376.09;;;9.48;96.53
10518;BME280;5307;42.548;22.968;2023-10-13T00:29:53;94372.72;;;9.44;96.96
10518;BME280;5307;42.548;22.968;2023-10-13T00:32:41;94377.31;;;9.47;96.70
10518;BME280;5307;42.548;22.968;2023-10-13T00:35:12;94375.69;;;9.49;96.77
10518;BME280;5307;42.548;22.968;2023-10-13T00:37:51;94386.75;;;9.59;96.35
10518;BME280;5307;42.548;22.968;2023-10-13T00:40:19;94378.56;;;9.42;97.12
10518;BME280;5307;42.548;22.968;2023-10-13T00:43:08;94384.00;;;9.42;97.42
10518;BME280;5307;42.548;22.968;2023-10-13T00:45:54;94386.69;;;9.30;97.90
10518;BME280;5307;42.548;22.968;2023-10-13T00:48:23;94383.00;;;9.36;97.53
10518;BME280;5307;42.548;22.968;2023-10-13T00:50:55;94384.00;;;9.42;97.19
10518;BME280;5307;42.548;22.968;2023-10-13T00:53:26;94376.97;;;9.45;96.88
10518;BME280;5307;42.548;22.968;2023-10-13T00:55:54;94375.84;;;9.42;96.84
10518;BME280;5307;42.548;22.968;2023-10-13T00:58:21;94377.13;;;9.38;96.40
10518;BME280;5307;42.548;22.968;2023-10-13T01:00:50;94376.03;;;9.19;96.67
10518;BME280;5307;42.548;22.968;2023-10-13T01:03:23;94379.84;;;9.21;97.08
10518;BME280;5307;42.548;22.968;2023-10-13T01:05:53;94388.97;;;9.15;97.73
10518;BME280;5307;42.548;22.968;2023-10-13T01:08:32;94369.91;;;9.15;98.58
10518;BME280;5307;42.548;22.968;2023-10-13T01:11:03;94374.16;;;9.16;98.07
10518;BME280;5307;42.548;22.968;2023-10-13T01:13:32;94380.81;;;9.15;97.77
10518;BME280;5307;42.548;22.968;2023-10-13T01:16:02;94383.34;;;9.22;97.87
10518;BME280;5307;42.548;22.968;2023-10-13T01:18:27;94384.53;;;9.21;97.11
10518;BME280;5307;42.548;22.968;2023-10-13T01:20:55;94383.88;;;9.33;97.17
10518;BME280;5307;42.548;22.968;2023-10-13T01:23:26;94394.69;;;9.20;97.19
10518;BME280;5307;42.548;22.968;2023-10-13T01:26:03;94388.47;;;9.20;97.53
10518;BME280;5307;42.548;22.968;2023-10-13T01:28:31;94393.22;;;9.16;98.47
10518;BME280;5307;42.548;22.968;2023-10-13T01:31:10;94386.59;;;9.33;97.33
10518;BME280;5307;42.548;22.968;2023-10-13T01:33:37;94386.53;;;9.01;97.54
10518;BME280;5307;42.548;22.968;2023-10-13T01:36:04;94387.69;;;9.03;98.70
10518;BME280;5307;42.548;22.968;2023-10-13T01:38:36;94385.38;;;9.02;97.55
10518;BME280;5307;42.548;22.968;2023-10-13T01:41:06;94388.88;;;9.02;98.13
10518;BME280;5307;42.548;22.968;2023-10-13T01:43:34;94390.56;;;8.96;98.54
10518;BME280;5307;42.548;22.968;2023-10-13T01:46:01;94406.22;;;8.92;99.01
10518;BME280;5307;42.548;22.968;2023-10-13T01:48:29;94395.31;;;8.92;98.47
10518;BME280;5307;42.548;22.968;2023-10-13T01:50:58;94402.38;;;8.89;98.63
10518;BME280;5307;42.548;22.968;2023-10-13T01:53:26;94404.22;;;8.76;98.97
10518;BME280;5307;42.548;22.968;2023-10-13T01:55:55;94400.31;;;8.77;99.75
10518;BME280;5307;42.548;22.968;2023-10-13T01:58:23;94391.81;;;8.91;100.00
10518;BME280;5307;42.548;22.968;2023-10-13T02:00:51;94399.75;;;8.66;99.57
10518;BME280;5307;42.548;22.968;2023-10-13T02:03:17;94397.66;;;8.74;99.72
10518;BME280;5307;42.548;22.968;2023-10-13T02:05:48;94390.94;;;8.78;100.00
10518;BME280;5307;42.548;22.968;2023-10-13T02:08:14;94393.13;;;8.67;100.00
10518;BME280;5307;42.548;22.968;2023-10-13T02:10:48;94382.41;;;8.60;100.00
10518;BME280;5307;42.548;22.968;2023-10-13T02:13:15;94385.50;;;8.78;100.00
10518;BME280;5307;42.548;22.968;2023-10-13T02:15:44;94378.59;;;8.74;100.00
10518;BME280;5307;42.548;22.968;2023-10-13T02:18:12;94378.84;;;8.63;99.74
10518;BME280;5307;42.548;22.968;2023-10-13T02:20:39;94383.69;;;8.72;99.42
10518;BME280;5307;42.548;22.968;2023-10-13T02:23:09;94378.22;;;8.91;99.81
10518;BME280;5307;42.548;22.968;2023-10-13T02:25:38;94396.41;;;8.78;98.97
10518;BME280;5307;42.548;22.968;2023-10-13T02:28:08;94391.22;;;9.00;97.87
10518;BME280;5307;42.548;22.968;2023-10-13T02:30:40;94398.44;;;8.74;98.07
10518;BME280;5307;42.548;22.968;2023-10-13T02:33:13;94395.84;;;8.87;97.54
10518;BME280;5307;42.548;22.968;2023-10-13T02:35:40;94388.81;;;8.86;95.95
10518;BME280;5307;42.548;22.968;2023-10-13T02:38:12;94396.63;;;8.68;95.50
10518;BME280;5307;42.548;22.968;2023-10-13T02:40:39;94390.91;;;8.62;96.46
10518;BME280;5307;42.548;22.968;2023-10-13T02:43:05;94395.47;;;8.49;96.29
10518;BME280;5307;42.548;22.968;2023-10-13T02:45:32;94395.47;;;8.49;96.72
10518;BME280;5307;42.548;22.968;2023-10-13T02:48:03;94393.22;;;8.44;98.08
10518;BME280;5307;42.548;22.968;2023-10-13T02:50:42;94406.69;;;8.51;98.47
10518;BME280;5307;42.548;22.968;2023-10-13T02:53:09;94404.09;;;8.44;97.92
10518;BME280;5307;42.548;22.968;2023-10-13T02:55:51;94387.94;;;8.37;98.83
10518;BME280;5307;42.548;22.968;2023-10-13T02:58:17;94399.38;;;8.48;99.29
10518;BME280;5307;42.548;22.968;2023-10-13T03:00:45;94400.81;;;8.52;99.01
10518;BME280;5307;42.548;22.968;2023-10-13T03:03:13;94398.88;;;8.33;99.22
10518;BME280;5307;42.548;22.968;2023-10-13T03:05:44;94398.19;;;8.49;99.59
10518;BME280;5307;42.548;22.968;2023-10-13T03:08:11;94394.47;;;8.39;99.40
10518;BME280;5307;42.548;22.968;2023-10-13T03:10:43;94400.56;;;8.47;100.00
10518;BME280;5307;42.548;22.968;2023-10-13T03:13:11;94401.38;;;8.24;100.00
10518;BME280;5307;42.548;22.968;2023-10-13T03:15:38;94402.50;;;8.46;100.00
10518;BME280;5307;42.548;22.968;2023-10-13T03:18:04;94398.06;;;8.36;100.00
10518;BME280;5307;42.548;22.968;2023-10-13T03:20:32;94402.34;;;8.33;100.00
10518;BME280;5307;42.548;22.968;2023-10-13T03:22:59;94403.41;;;8.40;100.00
10518;BME280;5307;42.548;22.968;2023-10-13T03:25:26;94410.16;;;8.31;100.00
10518;BME280;5307;42.548;22.968;2023-10-13T03:27:55;94401.97;;;8.35;100.00
10518;BME280;5307;42.548;22.968;2023-10-13T03:30:31;94404.50;;;8.22;100.00
10518;BME280;5307;42.548;22.968;2023-10-13T03:33:09;94407.91;;;8.26;100.00
10518;BME280;5307;42.548;22.968;2023-10-13T03:35:39;94411.34;;;8.30;100.00
10518;BME280;5307;42.548;22.968;2023-10-13T03:38:08;94400.94;;;8.25;100.00
10518;BME280;5307;42.548;22.968;2023-10-13T03:40:43;94403.41;;;8.40;100.00
10518;BME280;5307;42.548;22.968;2023-10-13T03:43:15;94398.16;;;8.09;100.00
10518;BME280;5307;42.548;22.968;2023-10-13T03:45:49;94391.47;;;8.33;100.00
10518;BME280;5307;42.548;22.968;2023-10-13T03:48:26;94397.88;;;8.23;100.00
10518;BME280;5307;42.548;22.968;2023-10-13T03:51:00;94384.28;;;8.23;100.00
10518;BME280;5307;42.548;22.968;2023-10-13T03:53:33;94387.00;;;8.23;100.00
10518;BME280;5307;42.548;22.968;2023-10-13T03:56:00;94385.50;;;7.99;100.00
10518;BME280;5307;42.548;22.968;2023-10-13T03:58:38;94383.97;;;7.98;100.00
10518;BME280;5307;42.548;22.968;2023-10-13T04:01:11;94385.75;;;8.08;100.00
10518;BME280;5307;42.548;22.968;2023-10-13T04:03:41;94379.66;;;8.00;100.00
10518;BME280;5307;42.548;22.968;2023-10-13T04:06:24;94373.78;;;8.02;100.00
10518;BME280;5307;42.548;22.968;2023-10-13T04:09:13;94382.31;;;8.04;100.00
10518;BME280;5307;42.548;22.968;2023-10-13T04:12:05;94390.97;;;8.19;100.00
10518;BME280;5307;42.548;22.968;2023-10-13T04:15:07;94382.44;;;7.97;100.00
10518;BME280;5307;42.548;22.968;2023-10-13T04:17:49;94384.75;;;7.98;100.00
10518;BME280;5307;42.548;22.968;2023-10-13T04:20:16;94392.94;;;8.18;100.00
10518;BME280;5307;42.548;22.968;2023-10-13T04:22:59;94398.69;;;8.00;100.00
10518;BME280;5307;42.548;22.968;2023-10-13T04:25:44;94395.00;;;8.11;100.00
10518;BME280;5307;42.548;22.968;2023-10-13T04:28:28;94396.19;;;8.10;100.00
10518;BME280;5307;42.548;22.968;2023-10-13T04:31:03;94383.78;;;7.65;99.93
10518;BME280;5307;42.548;22.968;2023-10-13T04:33:38;94397.00;;;7.17;100.00
10518;BME280;5307;42.548;22.968;2023-10-13T04:36:17;94393.97;;;7.61;99.13
10518;BME280;5307;42.548;22.968;2023-10-13T04:39:12;94389.47;;;7.74;98.58
10518;BME280;5307;42.548;22.968;2023-10-13T04:41:54;94394.38;;;8.03;97.17
10518;BME280;5307;42.548;22.968;2023-10-13T04:44:24;94397.22;;;7.96;96.12
10518;BME280;5307;42.548;22.968;2023-10-13T04:47:08;94405.41;;;7.72;96.67
10518;BME280;5307;42.548;22.968;2023-10-13T04:49:44;94397.16;;;7.56;96.97
10518;BME280;5307;42.548;22.968;2023-10-13T04:52:18;94406.66;;;7.91;96.19
10518;BME280;5307;42.548;22.968;2023-10-13T04:55:05;94406.16;;;8.16;94.87
10518;BME280;5307;42.548;22.968;2023-10-13T04:57:50;94414.47;;;7.89;94.05
10518;BME280;5307;42.548;22.968;2023-10-13T05:00:25;94407.66;;;7.78;95.89
10518;BME280;5307;42.548;22.968;2023-10-13T05:03:09;94417.03;;;8.16;95.84
10518;BME280;5307;42.548;22.968;2023-10-13T05:05:54;94424.31;;;8.03;96.13
10518;BME280;5307;42.548;22.968;2023-10-13T05:08:34;94425.25;;;7.93;96.38
10518;BME280;5307;42.548;22.968;2023-10-13T05:11:19;94429.19;;;8.12;96.76
10518;BME280;5307;42.548;22.968;2023-10-13T05:14:04;94425.84;;;8.04;97.83
10518;BME280;5307;42.548;22.968;2023-10-13T05:16:48;94431.22;;;8.27;97.94
10518;BME280;5307;42.548;22.968;2023-10-13T05:19:32;94430.28;;;8.14;98.03
10518;BME280;5307;42.548;22.968;2023-10-13T05:22:13;94442.44;;;8.29;97.79
10518;BME280;5307;42.548;22.968;2023-10-13T05:24:57;94440.50;;;8.30;98.23
10518;BME280;5307;42.548;22.968;2023-10-13T05:27:42;94437.53;;;8.44;98.29
10518;BME280;5307;42.548;22.968;2023-10-13T05:30:26;94442.06;;;8.51;97.13
10518;BME280;5307;42.548;22.968;2023-10-13T05:33:11;94440.63;;;8.46;95.63
10518;BME280;5307;42.548;22.968;2023-10-13T05:35:55;94434.25;;;8.53;94.17
10518;BME280;5307;42.548;22.968;2023-10-13T05:38:39;94443.03;;;8.80;93.05
10518;BME280;5307;42.548;22.968;2023-10-13T05:41:24;94446.59;;;8.77;90.36
10518;BME280;5307;42.548;22.968;2023-10-13T05:44:09;94456.84;;;8.89;89.51
10518;BME280;5307;42.548;22.968;2023-10-13T05:46:53;94453.41;;;9.05;89.09
10518;BME280;5307;42.548;22.968;2023-10-13T05:49:59;94458.22;;;9.34;87.41
10518;BME280;5307;42.548;22.968;2023-10-13T05:52:31;94457.69;;;9.22;86.63
10518;BME280;5307;42.548;22.968;2023-10-13T05:55:15;94456.69;;;9.33;86.98
10518;BME280;5307;42.548;22.968;2023-10-13T05:57:59;94464.78;;;9.36;86.96
10518;BME280;5307;42.548;22.968;2023-10-13T06:00:45;94456.13;;;9.58;85.70
10518;BME280;5307;42.548;22.968;2023-10-13T06:03:29;94459.19;;;9.43;84.88
10518;BME280;5307;42.548;22.968;2023-10-13T06:06:13;94469.22;;;9.63;83.55
10518;BME280;5307;42.548;22.968;2023-10-13T06:08:57;94465.66;;;9.82;81.44
10518;BME280;5307;42.548;22.968;2023-10-13T06:11:41;94469.13;;;10.15;82.22
10518;BME280;5307;42.548;22.968;2023-10-13T06:14:26;94473.31;;;10.78;80.73
10518;BME280;5307;42.548;22.968;2023-10-13T06:17:11;94474.47;;;10.19;80.28
10518;BME280;5307;42.548;22.968;2023-10-13T06:19:55;94483.53;;;10.16;80.80
10518;BME280;5307;42.548;22.968;2023-10-13T06:22:39;94477.97;;;10.35;81.62
10518;BME280;5307;42.548;22.968;2023-10-13T06:25:24;94480.03;;;10.60;81.50
10518;BME280;5307;42.548;22.968;2023-10-13T06:28:08;94484.22;;;10.65;80.92
10518;BME280;5307;42.548;22.968;2023-10-13T06:30:59;94483.34;;;11.22;80.60
10518;BME280;5307;42.548;22.968;2023-10-13T06:33:28;94480.97;;;11.75;79.21
10518;BME280;5307;42.548;22.968;2023-10-13T06:35:59;94483.31;;;12.24;77.14
10518;BME280;5307;42.548;22.968;2023-10-13T06:38:27;94496.81;;;12.06;76.47
10518;BME280;5307;42.548;22.968;2023-10-13T06:41:01;94492.00;;;12.10;76.32
10518;BME280;5307;42.548;22.968;2023-10-13T06:43:31;94490.56;;;12.18;77.28
10518;BME280;5307;42.548;22.968;2023-10-13T06:46:00;94482.81;;;12.73;76.72
10518;BME280;5307;42.548;22.968;2023-10-13T06:48:29;94483.00;;;12.57;76.13
10518;BME280;5307;42.548;22.968;2023-10-13T06:50:58;94480.19;;;12.91;75.83
10518;BME280;5307;42.548;22.968;2023-10-13T06:53:30;94472.28;;;13.15;74.45
10518;BME280;5307;42.548;22.968;2023-10-13T06:56:02;94481.25;;;13.69;73.38
10518;BME280;5307;42.548;22.968;2023-10-13T06:58:29;94480.41;;;13.90;72.72
10518;BME280;5307;42.548;22.968;2023-10-13T07:00:58;94474.09;;;13.71;70.79
10518;BME280;5307;42.548;22.968;2023-10-13T07:03:25;94472.94;;;13.50;71.16
10518;BME280;5307;42.548;22.968;2023-10-13T07:05:53;94468.88;;;14.32;70.24
10518;BME280;5307;42.548;22.968;2023-10-13T07:08:24;94471.56;;;13.86;69.96
10518;BME280;5307;42.548;22.968;2023-10-13T07:10:52;94461.53;;;14.19;70.71
10518;BME280;5307;42.548;22.968;2023-10-13T07:13:27;94464.34;;;14.38;69.53
10518;BME280;5307;42.548;22.968;2023-10-13T07:15:55;94459.00;;;14.62;68.52
10518;BME280;5307;42.548;22.968;2023-10-13T07:18:26;94453.81;;;14.36;68.02
10518;BME280;5307;42.548;22.968;2023-10-13T07:21:02;94457.16;;;15.56;66.83
10518;BME280;5307;42.548;22.968;2023-10-13T07:23:36;94467.34;;;15.73;64.90
10518;BME280;5307;42.548;22.968;2023-10-13T07:26:04;94470.75;;;15.68;65.80
10518;BME280;5307;42.548;22.968;2023-10-13T07:28:34;94456.53;;;17.63;62.84
10518;BME280;5307;42.548;22.968;2023-10-13T07:31:12;94461.06;;;16.54;62.11
10518;BME280;5307;42.548;22.968;2023-10-13T07:33:39;94465.09;;;16.05;63.80
10518;BME280;5307;42.548;22.968;2023-10-13T07:36:09;94462.94;;;16.00;63.81
10518;BME280;5307;42.548;22.968;2023-10-13T07:38:42;94455.59;;;17.07;63.51
10518;BME280;5307;42.548;22.968;2023-10-13T07:41:09;94465.41;;;17.08;59.00
10518;BME280;5307;42.548;22.968;2023-10-13T07:43:41;94453.47;;;16.49;59.74
10518;BME280;5307;42.548;22.968;2023-10-13T07:46:10;94441.00;;;18.16;59.67
10518;BME280;5307;42.548;22.968;2023-10-13T07:48:38;94443.84;;;18.62;56.14
10518;BME280;5307;42.548;22.968;2023-10-13T07:51:07;94446.53;;;18.16;58.16
10518;BME280;5307;42.548;22.968;2023-10-13T07:53:39;94449.53;;;17.33;60.11
10518;BME280;5307;42.548;22.968;2023-10-13T07:56:09;94450.78;;;18.31;57.69
10518;BME280;5307;42.548;22.968;2023-10-13T07:58:38;94440.34;;;17.56;57.27
10518;BME280;5307;42.548;22.968;2023-10-13T08:01:13;94435.13;;;18.28;55.94
10518;BME280;5307;42.548;22.968;2023-10-13T08:03:44;94442.84;;;18.04;56.30
10518;BME280;5307;42.548;22.968;2023-10-13T08:06:10;94439.84;;;19.35;54.23
10518;BME280;5307;42.548;22.968;2023-10-13T08:08:53;94441.06;;;19.28;55.08
10518;BME280;5307;42.548;22.968;2023-10-13T08:11:33;94426.19;;;20.32;51.06
10518;BME280;5307;42.548;22.968;2023-10-13T08:14:03;94425.09;;;18.92;54.02
10518;BME280;5307;42.548;22.968;2023-10-13T08:16:47;94425.59;;;18.70;54.81
10518;BME280;5307;42.548;22.968;2023-10-13T08:19:24;94420.47;;;19.67;52.23
10518;BME280;5307;42.548;22.968;2023-10-13T08:21:54;94421.38;;;19.26;53.13
10518;BME280;5307;42.548;22.968;2023-10-13T08:24:26;94431.78;;;19.32;54.89
10518;BME280;5307;42.548;22.968;2023-10-13T08:26:55;94435.19;;;18.95;55.37
10518;BME280;5307;42.548;22.968;2023-10-13T08:29:45;94436.38;;;19.40;55.61
10518;BME280;5307;42.548;22.968;2023-10-13T08:32:35;94442.34;;;19.96;54.35
10518;BME280;5307;42.548;22.968;2023-10-13T08:35:09;94437.59;;;20.99;48.90
10518;BME280;5307;42.548;22.968;2023-10-13T08:37:48;94439.38;;;21.19;48.00
10518;BME280;5307;42.548;22.968;2023-10-13T08:40:31;94424.72;;;21.07;48.44
10518;BME280;5307;42.548;22.968;2023-10-13T08:43:32;94405.81;;;19.98;51.30
10518;BME280;5307;42.548;22.968;2023-10-13T08:46:08;94412.97;;;20.64;50.92
10518;BME280;5307;42.548;22.968;2023-10-13T08:48:52;94415.97;;;21.59;48.34
10518;BME280;5307;42.548;22.968;2023-10-13T08:51:33;94423.50;;;20.43;50.55
10518;BME280;5307;42.548;22.968;2023-10-13T08:54:12;94410.88;;;21.52;49.91
10518;BME280;5307;42.548;22.968;2023-10-13T08:56:48;94407.31;;;21.12;50.24
10518;BME280;5307;42.548;22.968;2023-10-13T08:59:21;94413.28;;;20.71;51.06
10518;BME280;5307;42.548;22.968;2023-10-13T09:02:12;94413.28;;;20.23;51.20
10518;BME280;5307;42.548;22.968;2023-10-13T09:04:43;94413.25;;;20.17;51.58
10518;BME280;5307;42.548;22.968;2023-10-13T09:07:12;94418.38;;;20.30;51.19
10518;BME280;5307;42.548;22.968;2023-10-13T09:09:48;94413.28;;;20.71;50.47
10518;BME280;5307;42.548;22.968;2023-10-13T09:12:38;94404.72;;;20.86;49.42
10518;BME280;5307;42.548;22.968;2023-10-13T09:15:29;94406.09;;;21.58;47.04
10518;BME280;5307;42.548;22.968;2023-10-13T09:18:25;94395.97;;;21.88;46.65
10518;BME280;5307;42.548;22.968;2023-10-13T09:21:14;94399.75;;;22.77;47.04
10518;BME280;5307;42.548;22.968;2023-10-13T09:24:09;94386.66;;;22.61;46.92
10518;BME280;5307;42.548;22.968;2023-10-13T09:26:52;94385.75;;;22.41;47.87
10518;BME280;5307;42.548;22.968;2023-10-13T09:29:23;94382.47;;;22.32;45.49
10518;BME280;5307;42.548;22.968;2023-10-13T09:32:08;94384.88;;;22.63;46.79
10518;BME280;5307;42.548;22.968;2023-10-13T09:34:37;94377.53;;;23.48;44.96
10518;BME280;5307;42.548;22.968;2023-10-13T09:37:10;94376.44;;;22.80;44.36
10518;BME280;5307;42.548;22.968;2023-10-13T09:39:38;94368.47;;;23.42;46.27
10518;BME280;5307;42.548;22.968;2023-10-13T09:42:10;94370.03;;;23.37;46.24
10518;BME280;5307;42.548;22.968;2023-10-13T09:44:39;94365.94;;;23.74;44.72
10518;BME280;5307;42.548;22.968;2023-10-13T09:47:10;94359.09;;;23.99;43.91
10518;BME280;5307;42.548;22.968;2023-10-13T09:49:44;94353.63;;;23.88;43.03
10518;BME280;5307;42.548;22.968;2023-10-13T09:52:18;94349.63;;;24.08;43.93
10518;BME280;5307;42.548;22.968;2023-10-13T09:55:00;94351.25;;;24.22;43.16
10518;BME280;5307;42.548;22.968;2023-10-13T09:57:36;94340.09;;;23.98;43.95
10518;BME280;5307;42.548;22.968;2023-10-13T10:00:12;94334.09;;;23.88;44.79
10518;BME280;5307;42.548;22.968;2023-10-13T10:02:54;94329.56;;;24.72;41.24
10518;BME280;5307;42.548;22.968;2023-10-13T10:05:25;94326.91;;;24.42;42.10
10518;BME280;5307;42.548;22.968;2023-10-13T10:07:55;94331.59;;;24.09;41.61
10518;BME280;5307;42.548;22.968;2023-10-13T10:10:30;94319.63;;;23.65;42.51
10518;BME280;5307;42.548;22.968;2023-10-13T10:13:11;94315.13;;;24.49;41.71
10518;BME280;5307;42.548;22.968;2023-10-13T10:15:44;94312.13;;;24.84;42.46
10518;BME280;5307;42.548;22.968;2023-10-13T10:18:19;94313.31;;;24.89;39.85
10518;BME280;5307;42.548;22.968;2023-10-13T10:20:48;94298.59;;;24.88;38.95
10518;BME280;5307;42.548;22.968;2023-10-13T10:23:27;94303.53;;;24.64;36.59
10518;BME280;5307;42.548;22.968;2023-10-13T10:25:55;94296.88;;;25.36;36.13
10518;BME280;5307;42.548;22.968;2023-10-13T10:28:36;94304.53;;;25.17;35.71
10518;BME280;5307;42.548;22.968;2023-10-13T10:31:08;94301.66;;;24.28;35.60
10518;BME280;5307;42.548;22.968;2023-10-13T10:33:38;94305.50;;;24.50;35.37
10518;BME280;5307;42.548;22.968;2023-10-13T10:36:05;94287.75;;;24.66;35.09
10518;BME280;5307;42.548;22.968;2023-10-13T10:38:51;94298.94;;;24.66;36.77
10518;BME280;5307;42.548;22.968;2023-10-13T10:41:25;94287.63;;;24.91;35.06
10518;BME280;5307;42.548;22.968;2023-10-13T10:43:55;94292.16;;;25.12;37.61
10518;BME280;5307;42.548;22.968;2023-10-13T10:46:27;94294.22;;;24.93;34.37
10518;BME280;5307;42.548;22.968;2023-10-13T10:49:05;94287.19;;;24.86;34.04
10518;BME280;5307;42.548;22.968;2023-10-13T10:51:36;94291.28;;;24.85;36.25
10518;BME280;5307;42.548;22.968;2023-10-13T10:54:18;94291.97;;;24.92;34.55
10518;BME280;5307;42.548;22.968;2023-10-13T10:56:46;94288.13;;;24.57;34.45
10518;BME280;5307;42.548;22.968;2023-10-13T10:59:18;94287.31;;;24.19;36.05
10518;BME280;5307;42.548;22.968;2023-10-13T11:01:48;94290.63;;;24.17;38.24
10518;BME280;5307;42.548;22.968;2023-10-13T11:04:16;94301.00;;;24.22;36.51
10518;BME280;5307;42.548;22.968;2023-10-13T11:06:51;94288.91;;;24.90;38.01
10518;BME280;5307;42.548;22.968;2023-10-13T11:09:24;94289.28;;;25.18;38.62
10518;BME280;5307;42.548;22.968;2023-10-13T11:11:57;94280.09;;;24.85;37.14
10518;BME280;5307;42.548;22.968;2023-10-13T11:14:41;94278.09;;;25.18;38.76
10518;BME280;5307;42.548;22.968;2023-10-13T11:17:10;94269.81;;;25.12;38.93
10518;BME280;5307;42.548;22.968;2023-10-13T11:19:46;94266.53;;;25.40;37.21
10518;BME280;5307;42.548;22.968;2023-10-13T11:22:14;94261.88;;;24.66;38.36
10518;BME280;5307;42.548;22.968;2023-10-13T11:24:55;94259.47;;;24.88;38.55
10518;BME280;5307;42.548;22.968;2023-10-13T11:27:28;94249.47;;;24.61;36.42
10518;BME280;5307;42.548;22.968;2023-10-13T11:30:10;94256.94;;;24.72;37.09
10518;BME280;5307;42.548;22.968;2023-10-13T11:32:41;94254.56;;;24.95;34.23
10518;BME280;5307;42.548;22.968;2023-10-13T11:35:08;94255.22;;;24.50;34.31
10518;BME280;5307;42.548;22.968;2023-10-13T11:37:45;94250.97;;;24.81;34.51
10518;BME280;5307;42.548;22.968;2023-10-13T11:40:21;94256.56;;;24.24;35.88
10518;BME280;5307;42.548;22.968;2023-10-13T11:43:07;94255.03;;;24.23;35.72
10518;BME280;5307;42.548;22.968;2023-10-13T11:45:39;94256.44;;;24.36;35.25
10518;BME280;5307;42.548;22.968;2023-10-13T11:48:19;94245.63;;;24.26;35.40
10518;BME280;5307;42.548;22.968;2023-10-13T11:51:00;94231.59;;;24.51;37.46
10518;BME280;5307;42.548;22.968;2023-10-13T11:53:31;94233.75;;;24.77;36.76
10518;BME280;5307;42.548;22.968;2023-10-13T11:55:58;94231.03;;;24.71;35.60
10518;BME280;5307;42.548;22.968;2023-10-13T11:58:25;94226.53;;;24.31;35.47
10518;BME280;5307;42.548;22.968;2023-10-13T12:00:53;94235.88;;;24.71;36.06
10518;BME280;5307;42.548;22.968;2023-10-13T12:03:35;94227.34;;;24.63;35.77
10518;BME280;5307;42.548;22.968;2023-10-13T12:06:19;94216.72;;;24.43;37.14
10518;BME280;5307;42.548;22.968;2023-10-13T12:08:59;94221.34;;;24.40;35.66
10518;BME280;5307;42.548;22.968;2023-10-13T12:11:45;94220.44;;;24.51;38.27
10518;BME280;5307;42.548;22.968;2023-10-13T12:14:12;94209.47;;;24.53;37.19
10518;BME280;5307;42.548;22.968;2023-10-13T12:16:46;94218.25;;;24.44;34.93
10518;BME280;5307;42.548;22.968;2023-10-13T12:19:16;94210.25;;;24.53;35.21
10518;BME280;5307;42.548;22.968;2023-10-13T12:21:43;94216.72;;;24.43;34.47
10518;BME280;5307;42.548;22.968;2023-10-13T12:24:11;94216.59;;;24.35;34.27
10518;BME280;5307;42.548;22.968;2023-10-13T12:26:48;94208.25;;;24.48;34.92
10518;BME280;5307;42.548;22.968;2023-10-13T12:29:22;94209.00;;;24.49;37.24
10518;BME280;5307;42.548;22.968;2023-10-13T12:31:54;94214.00;;;24.18;34.89
10518;BME280;5307;42.548;22.968;2023-10-13T12:34:35;94202.94;;;24.32;36.13
10518;BME280;5307;42.548;22.968;2023-10-13T12:37:23;94202.91;;;24.13;35.87
10518;BME280;5307;42.548;22.968;2023-10-13T12:40:04;94198.91;;;24.08;35.79
10518;BME280;5307;42.548;22.968;2023-10-13T12:42:48;94210.09;;;24.08;34.55
10518;BME280;5307;42.548;22.968;2023-10-13T12:45:38;94206.53;;;24.08;35.87
10518;BME280;5307;42.548;22.968;2023-10-13T12:48:22;94206.69;;;24.15;35.64
10518;BME280;5307;42.548;22.968;2023-10-13T12:51:08;94209.59;;;24.04;33.92
10518;BME280;5307;42.548;22.968;2023-10-13T12:53:45;94192.78;;;24.28;35.52
10518;BME280;5307;42.548;22.968;2023-10-13T12:56:12;94190.03;;;24.10;33.92
10518;BME280;5307;42.548;22.968;2023-10-13T12:58:40;94191.06;;;24.07;32.99
10518;BME280;5307;42.548;22.968;2023-10-13T13:01:13;94188.56;;;24.03;32.27
10518;BME280;5307;42.548;22.968;2023-10-13T13:03:44;94185.47;;;24.07;33.40
10518;BME280;5307;42.548;22.968;2023-10-13T13:06:16;94186.47;;;24.47;32.46
10518;BME280;5307;42.548;22.968;2023-10-13T13:08:50;94183.97;;;24.24;31.22
10518;BME280;5307;42.548;22.968;2023-10-13T13:11:17;94187.75;;;24.08;32.49
10518;BME280;5307;42.548;22.968;2023-10-13T13:13:43;94179.00;;;24.17;32.57
10518;BME280;5307;42.548;22.968;2023-10-13T13:16:11;94179.31;;;24.14;32.63
10518;BME280;5307;42.548;22.968;2023-10-13T13:18:38;94176.13;;;24.04;32.67
10518;BME280;5307;42.548;22.968;2023-10-13T13:21:05;94176.50;;;23.95;32.48
10518;BME280;5307;42.548;22.968;2023-10-13T13:23:38;94182.19;;;24.08;33.15
10518;BME280;5307;42.548;22.968;2023-10-13T13:26:06;94185.78;;;23.84;32.70
10518;BME280;5307;42.548;22.968;2023-10-13T13:28:41;94178.16;;;23.85;32.41
10518;BME280;5307;42.548;22.968;2023-10-13T13:31:08;94182.38;;;23.91;34.38
10518;BME280;5307;42.548;22.968;2023-10-13T13:33:37;94174.31;;;23.88;33.68
10518;BME280;5307;42.548;22.968;2023-10-13T13:36:08;94176.13;;;24.04;33.95
10518;BME280;5307;42.548;22.968;2023-10-13T13:38:42;94187.91;;;23.97;34.53
10518;BME280;5307;42.548;22.968;2023-10-13T13:41:12;94187.28;;;23.85;34.31
10518;BME280;5307;42.548;22.968;2023-10-13T13:43:42;94182.91;;;23.90;34.88